Sun Prairie, Wisconsin
Current Conditions -  °F | °C
As of 9:53 PM on Thursday 27 Nov 2014 (Local Time) from KMSN Reporting Station
Overcast Overcast  
Wind Chill: 10°   Ceiling: 16000
Heat Index: 10°   Visibility: 10mi
Dew Point:   Wind: 0mph
Humidity: 80%   Direction: NA
Pressure: 30.38"   Gusts: NA
Location:  43.18°N, 89.21°W
Report Text: KMSN 280353Z 00000KT 10SM BKN160 OVC220 M12/M15 A3038 RMK AO2 SLP303 T11221150
Loading
Personal Weather Stations






























Interactive Weather Map New forecast layout! Learn more

10-Day Weather Forecast

Advertisements
Track Severe Weather on mobile